sensor_id;sensor_type;location;lat;lon;timestamp;P1;durP1;ratioP1;P2;durP2;ratioP2
73113;SDS011;61301;51.956;5.876;2023-04-24T00:00:56;6.55;;;5.95;;
73113;SDS011;61301;51.956;5.876;2023-04-24T00:03:24;6.78;;;5.85;;
73113;SDS011;61301;51.956;5.876;2023-04-24T00:05:51;8.95;;;7.50;;
73113;SDS011;61301;51.956;5.876;2023-04-24T00:08:17;6.80;;;6.10;;
73113;SDS011;61301;51.956;5.876;2023-04-24T00:10:44;7.13;;;6.43;;
73113;SDS011;61301;51.956;5.876;2023-04-24T00:13:10;7.28;;;6.63;;
73113;SDS011;61301;51.956;5.876;2023-04-24T00:15:36;7.13;;;6.43;;
73113;SDS011;61301;51.956;5.876;2023-04-24T00:18:02;5.55;;;5.05;;
73113;SDS011;61301;51.956;5.876;2023-04-24T00:20:28;5.07;;;4.30;;
73113;SDS011;61301;51.956;5.876;2023-04-24T00:22:58;5.15;;;4.65;;
73113;SDS011;61301;51.956;5.876;2023-04-24T00:25:24;2.83;;;2.53;;
73113;SDS011;61301;51.956;5.876;2023-04-24T00:27:50;2.72;;;2.53;;
73113;SDS011;61301;51.956;5.876;2023-04-24T00:30:16;2.45;;;2.25;;
73113;SDS011;61301;51.956;5.876;2023-04-24T00:32:42;2.42;;;2.22;;
73113;SDS011;61301;51.956;5.876;2023-04-24T00:35:08;2.78;;;2.50;;
73113;SDS011;61301;51.956;5.876;2023-04-24T00:37:34;3.15;;;1.90;;
73113;SDS011;61301;51.956;5.876;2023-04-24T00:40:00;2.70;;;1.88;;
73113;SDS011;61301;51.956;5.876;2023-04-24T00:42:26;2.47;;;1.52;;
73113;SDS011;61301;51.956;5.876;2023-04-24T00:44:52;1.70;;;1.60;;
73113;SDS011;61301;51.956;5.876;2023-04-24T00:47:19;1.50;;;1.40;;
73113;SDS011;61301;51.956;5.876;2023-04-24T00:49:47;2.25;;;1.65;;
73113;SDS011;61301;51.956;5.876;2023-04-24T00:52:13;1.92;;;1.65;;
73113;SDS011;61301;51.956;5.876;2023-04-24T00:54:43;2.35;;;1.92;;
73113;SDS011;61301;51.956;5.876;2023-04-24T00:57:10;3.03;;;2.72;;
73113;SDS011;61301;51.956;5.876;2023-04-24T00:59:37;5.55;;;3.67;;
73113;SDS011;61301;51.956;5.876;2023-04-24T01:02:07;4.95;;;4.03;;
73113;SDS011;61301;51.956;5.876;2023-04-24T01:04:34;5.22;;;4.72;;
73113;SDS011;61301;51.956;5.876;2023-04-24T01:07:00;7.10;;;6.10;;
73113;SDS011;61301;51.956;5.876;2023-04-24T01:09:27;9.23;;;8.25;;
73113;SDS011;61301;51.956;5.876;2023-04-24T01:11:53;12.70;;;10.88;;
73113;SDS011;61301;51.956;5.876;2023-04-24T01:14:19;13.85;;;11.07;;
73113;SDS011;61301;51.956;5.876;2023-04-24T01:16:48;15.52;;;12.70;;
73113;SDS011;61301;51.956;5.876;2023-04-24T01:19:14;15.90;;;14.13;;
73113;SDS011;61301;51.956;5.876;2023-04-24T01:21:41;16.77;;;13.77;;
73113;SDS011;61301;51.956;5.876;2023-04-24T01:24:08;19.25;;;14.98;;
73113;SDS011;61301;51.956;5.876;2023-04-24T01:26:34;22.30;;;17.58;;
73113;SDS011;61301;51.956;5.876;2023-04-24T01:29:01;20.00;;;16.52;;
73113;SDS011;61301;51.956;5.876;2023-04-24T01:31:27;19.77;;;16.67;;
73113;SDS011;61301;51.956;5.876;2023-04-24T01:33:53;19.13;;;15.98;;
73113;SDS011;61301;51.956;5.876;2023-04-24T01:36:21;19.65;;;16.50;;
73113;SDS011;61301;51.956;5.876;2023-04-24T01:38:47;19.70;;;16.92;;
73113;SDS011;61301;51.956;5.876;2023-04-24T01:41:13;19.05;;;15.90;;
73113;SDS011;61301;51.956;5.876;2023-04-24T01:43:39;16.63;;;14.82;;
73113;SDS011;61301;51.956;5.876;2023-04-24T01:46:06;17.23;;;15.20;;
73113;SDS011;61301;51.956;5.876;2023-04-24T01:48:35;15.23;;;13.63;;
73113;SDS011;61301;51.956;5.876;2023-04-24T01:51:01;17.80;;;14.57;;
73113;SDS011;61301;51.956;5.876;2023-04-24T01:53:29;15.85;;;14.15;;
73113;SDS011;61301;51.956;5.876;2023-04-24T01:55:55;16.60;;;14.27;;
73113;SDS011;61301;51.956;5.876;2023-04-24T01:58:21;17.15;;;15.38;;
73113;SDS011;61301;51.956;5.876;2023-04-24T02:00:48;18.63;;;16.70;;
73113;SDS011;61301;51.956;5.876;2023-04-24T02:03:14;18.77;;;15.75;;
73113;SDS011;61301;51.956;5.876;2023-04-24T02:05:40;17.20;;;15.13;;
73113;SDS011;61301;51.956;5.876;2023-04-24T02:08:09;15.73;;;14.05;;
73113;SDS011;61301;51.956;5.876;2023-04-24T02:10:37;19.48;;;15.10;;
73113;SDS011;61301;51.956;5.876;2023-04-24T02:13:04;17.52;;;15.10;;
73113;SDS011;61301;51.956;5.876;2023-04-24T02:15:30;17.08;;;15.07;;
73113;SDS011;61301;51.956;5.876;2023-04-24T02:17:56;18.95;;;17.00;;
73113;SDS011;61301;51.956;5.876;2023-04-24T02:20:23;20.55;;;17.80;;
73113;SDS011;61301;51.956;5.876;2023-04-24T02:22:49;21.40;;;18.88;;
73113;SDS011;61301;51.956;5.876;2023-04-24T02:25:15;19.40;;;17.23;;
73113;SDS011;61301;51.956;5.876;2023-04-24T02:27:41;22.23;;;19.40;;
73113;SDS011;61301;51.956;5.876;2023-04-24T02:30:08;22.70;;;18.33;;
73113;SDS011;61301;51.956;5.876;2023-04-24T02:32:34;20.30;;;17.63;;
73113;SDS011;61301;51.956;5.876;2023-04-24T02:35:01;23.08;;;19.30;;
73113;SDS011;61301;51.956;5.876;2023-04-24T02:37:27;23.45;;;19.40;;
73113;SDS011;61301;51.956;5.876;2023-04-24T02:39:53;20.90;;;18.67;;
73113;SDS011;61301;51.956;5.876;2023-04-24T02:42:19;22.17;;;19.67;;
73113;SDS011;61301;51.956;5.876;2023-04-24T02:44:45;20.70;;;16.85;;
73113;SDS011;61301;51.956;5.876;2023-04-24T02:47:11;23.52;;;19.13;;
73113;SDS011;61301;51.956;5.876;2023-04-24T02:49:37;18.90;;;16.80;;
73113;SDS011;61301;51.956;5.876;2023-04-24T02:52:03;21.33;;;19.02;;
73113;SDS011;61301;51.956;5.876;2023-04-24T02:54:29;22.13;;;18.00;;
73113;SDS011;61301;51.956;5.876;2023-04-24T02:56:55;21.55;;;18.63;;
73113;SDS011;61301;51.956;5.876;2023-04-24T02:59:22;21.58;;;19.27;;
73113;SDS011;61301;51.956;5.876;2023-04-24T03:01:48;17.85;;;15.95;;
73113;SDS011;61301;51.956;5.876;2023-04-24T03:04:14;18.17;;;16.38;;
73113;SDS011;61301;51.956;5.876;2023-04-24T03:06:41;19.75;;;15.75;;
73113;SDS011;61301;51.956;5.876;2023-04-24T03:09:07;20.20;;;16.70;;
73113;SDS011;61301;51.956;5.876;2023-04-24T03:11:33;18.00;;;16.08;;
73113;SDS011;61301;51.956;5.876;2023-04-24T03:13:59;20.65;;;17.05;;
73113;SDS011;61301;51.956;5.876;2023-04-24T03:16:25;21.27;;;19.05;;
73113;SDS011;61301;51.956;5.876;2023-04-24T03:18:54;19.85;;;16.40;;
73113;SDS011;61301;51.956;5.876;2023-04-24T03:21:21;19.92;;;17.67;;
73113;SDS011;61301;51.956;5.876;2023-04-24T03:23:48;18.73;;;16.48;;
73113;SDS011;61301;51.956;5.876;2023-04-24T03:26:14;18.70;;;16.63;;
73113;SDS011;61301;51.956;5.876;2023-04-24T03:28:51;18.85;;;16.27;;
73113;SDS011;61301;51.956;5.876;2023-04-24T03:31:17;15.85;;;14.15;;
73113;SDS011;61301;51.956;5.876;2023-04-24T03:33:44;22.55;;;18.90;;
73113;SDS011;61301;51.956;5.876;2023-04-24T03:36:10;23.73;;;19.15;;
73113;SDS011;61301;51.956;5.876;2023-04-24T03:38:39;23.63;;;20.95;;
73113;SDS011;61301;51.956;5.876;2023-04-24T03:41:27;23.98;;;21.40;;
73113;SDS011;61301;51.956;5.876;2023-04-24T03:43:58;30.10;;;24.10;;
73113;SDS011;61301;51.956;5.876;2023-04-24T03:46:24;30.58;;;23.75;;
73113;SDS011;61301;51.956;5.876;2023-04-24T03:48:54;34.45;;;26.10;;
73113;SDS011;61301;51.956;5.876;2023-04-24T03:51:25;29.70;;;25.10;;
73113;SDS011;61301;51.956;5.876;2023-04-24T03:53:55;34.10;;;27.67;;
73113;SDS011;61301;51.956;5.876;2023-04-24T03:56:23;36.17;;;26.67;;
73113;SDS011;61301;51.956;5.876;2023-04-24T03:58:50;35.13;;;28.52;;
73113;SDS011;61301;51.956;5.876;2023-04-24T04:01:16;31.42;;;25.38;;
73113;SDS011;61301;51.956;5.876;2023-04-24T04:03:57;31.20;;;27.40;;
73113;SDS011;61301;51.956;5.876;2023-04-24T04:06:25;36.78;;;28.52;;
73113;SDS011;61301;51.956;5.876;2023-04-24T04:08:53;32.58;;;27.42;;
73113;SDS011;61301;51.956;5.876;2023-04-24T04:11:19;34.10;;;26.83;;
73113;SDS011;61301;51.956;5.876;2023-04-24T04:13:45;29.45;;;25.63;;
73113;SDS011;61301;51.956;5.876;2023-04-24T04:16:15;34.15;;;27.15;;
73113;SDS011;61301;51.956;5.876;2023-04-24T04:18:43;30.83;;;24.67;;
73113;SDS011;61301;51.956;5.876;2023-04-24T04:21:10;32.70;;;25.88;;
73113;SDS011;61301;51.956;5.876;2023-04-24T04:23:37;30.60;;;25.90;;
73113;SDS011;61301;51.956;5.876;2023-04-24T04:26:16;28.25;;;24.60;;
73113;SDS011;61301;51.956;5.876;2023-04-24T04:28:59;26.23;;;23.33;;
73113;SDS011;61301;51.956;5.876;2023-04-24T04:31:27;30.92;;;24.40;;
73113;SDS011;61301;51.956;5.876;2023-04-24T04:33:55;26.20;;;23.35;;
73113;SDS011;61301;51.956;5.876;2023-04-24T04:36:21;30.15;;;25.55;;
73113;SDS011;61301;51.956;5.876;2023-04-24T04:38:53;28.45;;;22.23;;
73113;SDS011;61301;51.956;5.876;2023-04-24T04:41:41;27.00;;;23.58;;
73113;SDS011;61301;51.956;5.876;2023-04-24T04:44:09;29.45;;;22.67;;
73113;SDS011;61301;51.956;5.876;2023-04-24T04:46:36;25.75;;;21.88;;
73113;SDS011;61301;51.956;5.876;2023-04-24T04:49:17;25.35;;;22.30;;
73113;SDS011;61301;51.956;5.876;2023-04-24T04:51:44;27.35;;;21.33;;
73113;SDS011;61301;51.956;5.876;2023-04-24T04:54:11;24.77;;;20.95;;
73113;SDS011;61301;51.956;5.876;2023-04-24T04:56:37;23.55;;;21.13;;
73113;SDS011;61301;51.956;5.876;2023-04-24T04:59:04;24.77;;;20.80;;
73113;SDS011;61301;51.956;5.876;2023-04-24T05:01:32;24.73;;;19.85;;
73113;SDS011;61301;51.956;5.876;2023-04-24T05:03:58;23.42;;;20.58;;
73113;SDS011;61301;51.956;5.876;2023-04-24T05:06:25;21.77;;;19.42;;
73113;SDS011;61301;51.956;5.876;2023-04-24T05:08:53;24.30;;;20.00;;
73113;SDS011;61301;51.956;5.876;2023-04-24T05:11:38;26.10;;;20.75;;
73113;SDS011;61301;51.956;5.876;2023-04-24T05:14:05;22.98;;;20.15;;
73113;SDS011;61301;51.956;5.876;2023-04-24T05:16:34;26.15;;;21.05;;
73113;SDS011;61301;51.956;5.876;2023-04-24T05:19:03;21.70;;;18.90;;
73113;SDS011;61301;51.956;5.876;2023-04-24T05:21:34;24.42;;;20.25;;
73113;SDS011;61301;51.956;5.876;2023-04-24T05:24:00;21.25;;;18.95;;
73113;SDS011;61301;51.956;5.876;2023-04-24T05:27:02;21.38;;;18.55;;
73113;SDS011;61301;51.956;5.876;2023-04-24T05:29:35;17.98;;;16.05;;
73113;SDS011;61301;51.956;5.876;2023-04-24T05:32:03;19.88;;;14.98;;
73113;SDS011;61301;51.956;5.876;2023-04-24T05:34:30;20.20;;;17.85;;
73113;SDS011;61301;51.956;5.876;2023-04-24T05:36:56;19.42;;;17.42;;
73113;SDS011;61301;51.956;5.876;2023-04-24T05:39:23;15.48;;;13.88;;
73113;SDS011;61301;51.956;5.876;2023-04-24T05:41:50;18.58;;;16.60;;
73113;SDS011;61301;51.956;5.876;2023-04-24T05:44:17;18.58;;;16.50;;
73113;SDS011;61301;51.956;5.876;2023-04-24T05:46:43;17.65;;;15.75;;
73113;SDS011;61301;51.956;5.876;2023-04-24T05:49:10;17.42;;;15.13;;
73113;SDS011;61301;51.956;5.876;2023-04-24T05:51:36;14.80;;;13.30;;
73113;SDS011;61301;51.956;5.876;2023-04-24T05:54:02;16.63;;;14.05;;
73113;SDS011;61301;51.956;5.876;2023-04-24T05:56:29;13.77;;;11.80;;
73113;SDS011;61301;51.956;5.876;2023-04-24T05:58:56;12.07;;;10.77;;
73113;SDS011;61301;51.956;5.876;2023-04-24T06:01:22;15.25;;;11.98;;
73113;SDS011;61301;51.956;5.876;2023-04-24T06:06:24;13.82;;;10.88;;
73113;SDS011;61301;51.956;5.876;2023-04-24T06:08:51;11.90;;;10.32;;
73113;SDS011;61301;51.956;5.876;2023-04-24T06:11:17;15.27;;;12.15;;
73113;SDS011;61301;51.956;5.876;2023-04-24T06:13:43;13.98;;;12.57;;
73113;SDS011;61301;51.956;5.876;2023-04-24T06:16:44;12.25;;;10.65;;
73113;SDS011;61301;51.956;5.876;2023-04-24T06:19:24;14.73;;;10.57;;
73113;SDS011;61301;51.956;5.876;2023-04-24T06:21:50;13.48;;;11.70;;
73113;SDS011;61301;51.956;5.876;2023-04-24T06:24:16;12.50;;;9.20;;
73113;SDS011;61301;51.956;5.876;2023-04-24T06:26:42;12.73;;;11.43;;
73113;SDS011;61301;51.956;5.876;2023-04-24T06:29:08;19.70;;;11.40;;
73113;SDS011;61301;51.956;5.876;2023-04-24T06:31:35;10.48;;;8.63;;
73113;SDS011;61301;51.956;5.876;2023-04-24T06:34:03;10.27;;;8.90;;
73113;SDS011;61301;51.956;5.876;2023-04-24T06:36:29;10.32;;;9.23;;
73113;SDS011;61301;51.956;5.876;2023-04-24T06:38:56;7.93;;;6.45;;
73113;SDS011;61301;51.956;5.876;2023-04-24T06:41:23;8.35;;;7.55;;
73113;SDS011;61301;51.956;5.876;2023-04-24T06:43:49;8.32;;;7.53;;
73113;SDS011;61301;51.956;5.876;2023-04-24T06:46:15;7.97;;;7.18;;
73113;SDS011;61301;51.956;5.876;2023-04-24T06:48:41;9.85;;;8.23;;
73113;SDS011;61301;51.956;5.876;2023-04-24T06:51:07;7.45;;;6.70;;
73113;SDS011;61301;51.956;5.876;2023-04-24T06:53:33;7.25;;;5.32;;
73113;SDS011;61301;51.956;5.876;2023-04-24T06:55:59;7.35;;;6.47;;
73113;SDS011;61301;51.956;5.876;2023-04-24T06:58:26;7.65;;;5.93;;
73113;SDS011;61301;51.956;5.876;2023-04-24T07:00:52;6.53;;;5.93;;
73113;SDS011;61301;51.956;5.876;2023-04-24T07:03:18;6.60;;;5.65;;
73113;SDS011;61301;51.956;5.876;2023-04-24T07:05:44;5.32;;;4.82;;
73113;SDS011;61301;51.956;5.876;2023-04-24T07:08:11;4.85;;;3.92;;
73113;SDS011;61301;51.956;5.876;2023-04-24T07:10:38;3.60;;;3.17;;
73113;SDS011;61301;51.956;5.876;2023-04-24T07:13:04;4.75;;;3.17;;
73113;SDS011;61301;51.956;5.876;2023-04-24T07:15:30;3.42;;;2.63;;
73113;SDS011;61301;51.956;5.876;2023-04-24T07:17:57;2.42;;;2.10;;
73113;SDS011;61301;51.956;5.876;2023-04-24T07:20:23;3.10;;;2.80;;
73113;SDS011;61301;51.956;5.876;2023-04-24T07:22:49;2.80;;;2.30;;
73113;SDS011;61301;51.956;5.876;2023-04-24T07:25:17;2.30;;;2.10;;
73113;SDS011;61301;51.956;5.876;2023-04-24T07:27:43;1.95;;;1.75;;
73113;SDS011;61301;51.956;5.876;2023-04-24T07:30:09;2.55;;;1.50;;
73113;SDS011;61301;51.956;5.876;2023-04-24T07:32:35;1.42;;;0.85;;
73113;SDS011;61301;51.956;5.876;2023-04-24T07:35:01;1.25;;;0.80;;
73113;SDS011;61301;51.956;5.876;2023-04-24T07:37:27;0.90;;;0.90;;
73113;SDS011;61301;51.956;5.876;2023-04-24T07:39:54;0.85;;;0.80;;
73113;SDS011;61301;51.956;5.876;2023-04-24T07:42:20;1.08;;;0.70;;
73113;SDS011;61301;51.956;5.876;2023-04-24T07:44:46;2.28;;;1.23;;
73113;SDS011;61301;51.956;5.876;2023-04-24T07:47:13;2.03;;;1.80;;
73113;SDS011;61301;51.956;5.876;2023-04-24T07:49:41;3.30;;;2.65;;
73113;SDS011;61301;51.956;5.876;2023-04-24T07:52:08;4.05;;;3.22;;
73113;SDS011;61301;51.956;5.876;2023-04-24T07:54:34;4.80;;;3.05;;
73113;SDS011;61301;51.956;5.876;2023-04-24T07:57:00;6.13;;;3.80;;
73113;SDS011;61301;51.956;5.876;2023-04-24T07:59:27;6.85;;;4.93;;
73113;SDS011;61301;51.956;5.876;2023-04-24T08:01:53;5.00;;;4.50;;
73113;SDS011;61301;51.956;5.876;2023-04-24T08:04:19;6.13;;;4.97;;
73113;SDS011;61301;51.956;5.876;2023-04-24T08:06:47;9.63;;;5.47;;
73113;SDS011;61301;51.956;5.876;2023-04-24T08:09:13;7.50;;;5.65;;
73113;SDS011;61301;51.956;5.876;2023-04-24T08:11:39;7.35;;;5.38;;
73113;SDS011;61301;51.956;5.876;2023-04-24T08:14:05;6.07;;;5.25;;
73113;SDS011;61301;51.956;5.876;2023-04-24T08:16:32;9.68;;;6.47;;
73113;SDS011;61301;51.956;5.876;2023-04-24T08:18:58;6.68;;;5.10;;
73113;SDS011;61301;51.956;5.876;2023-04-24T08:21:24;11.32;;;6.43;;
73113;SDS011;61301;51.956;5.876;2023-04-24T08:23:52;8.98;;;6.00;;
73113;SDS011;61301;51.956;5.876;2023-04-24T08:26:18;9.48;;;4.88;;
73113;SDS011;61301;51.956;5.876;2023-04-24T08:28:44;8.98;;;5.40;;
73113;SDS011;61301;51.956;5.876;2023-04-24T08:31:10;5.93;;;4.30;;
73113;SDS011;61301;51.956;5.876;2023-04-24T08:33:36;10.30;;;5.10;;
73113;SDS011;61301;51.956;5.876;2023-04-24T08:36:03;8.52;;;5.35;;
73113;SDS011;61301;51.956;5.876;2023-04-24T08:38:30;9.80;;;5.70;;
73113;SDS011;61301;51.956;5.876;2023-04-24T08:40:57;10.82;;;5.88;;
73113;SDS011;61301;51.956;5.876;2023-04-24T08:43:24;8.90;;;5.13;;
73113;SDS011;61301;51.956;5.876;2023-04-24T08:45:51;8.45;;;6.22;;
73113;SDS011;61301;51.956;5.876;2023-04-24T08:48:18;9.32;;;4.97;;
73113;SDS011;61301;51.956;5.876;2023-04-24T08:50:44;10.73;;;6.80;;
73113;SDS011;61301;51.956;5.876;2023-04-24T08:53:11;8.38;;;5.45;;
73113;SDS011;61301;51.956;5.876;2023-04-24T08:55:37;9.50;;;6.00;;
73113;SDS011;61301;51.956;5.876;2023-04-24T08:58:03;11.05;;;6.70;;
73113;SDS011;61301;51.956;5.876;2023-04-24T09:00:30;9.30;;;5.43;;
73113;SDS011;61301;51.956;5.876;2023-04-24T09:02:56;7.68;;;4.68;;
73113;SDS011;61301;51.956;5.876;2023-04-24T09:05:23;9.57;;;4.50;;
73113;SDS011;61301;51.956;5.876;2023-04-24T09:07:50;14.98;;;4.57;;
73113;SDS011;61301;51.956;5.876;2023-04-24T09:10:20;7.15;;;3.28;;
73113;SDS011;61301;51.956;5.876;2023-04-24T09:12:48;9.23;;;2.70;;
73113;SDS011;61301;51.956;5.876;2023-04-24T09:15:16;8.88;;;3.60;;
73113;SDS011;61301;51.956;5.876;2023-04-24T09:17:43;10.50;;;3.20;;
73113;SDS011;61301;51.956;5.876;2023-04-24T09:20:09;6.65;;;3.25;;
73113;SDS011;61301;51.956;5.876;2023-04-24T09:22:36;12.35;;;3.85;;
73113;SDS011;61301;51.956;5.876;2023-04-24T09:25:03;9.88;;;3.20;;
73113;SDS011;61301;51.956;5.876;2023-04-24T09:27:31;13.25;;;4.20;;
73113;SDS011;61301;51.956;5.876;2023-04-24T09:30:01;13.40;;;3.10;;
73113;SDS011;61301;51.956;5.876;2023-04-24T09:32:28;11.35;;;3.30;;
73113;SDS011;61301;51.956;5.876;2023-04-24T09:37:50;12.77;;;3.53;;
73113;SDS011;61301;51.956;5.876;2023-04-24T09:40:17;7.32;;;2.80;;
73113;SDS011;61301;51.956;5.876;2023-04-24T09:42:52;10.07;;;2.78;;
73113;SDS011;61301;51.956;5.876;2023-04-24T09:45:20;14.23;;;3.30;;
73113;SDS011;61301;51.956;5.876;2023-04-24T09:47:46;10.80;;;2.75;;
73113;SDS011;61301;51.956;5.876;2023-04-24T09:50:16;8.52;;;2.67;;
73113;SDS011;61301;51.956;5.876;2023-04-24T09:52:43;12.27;;;3.00;;
73113;SDS011;61301;51.956;5.876;2023-04-24T09:55:12;10.57;;;2.95;;
73113;SDS011;61301;51.956;5.876;2023-04-24T09:57:53;17.25;;;2.70;;
73113;SDS011;61301;51.956;5.876;2023-04-24T10:00:27;12.48;;;3.13;;
73113;SDS011;61301;51.956;5.876;2023-04-24T10:02:58;11.70;;;2.53;;
73113;SDS011;61301;51.956;5.876;2023-04-24T10:05:26;9.25;;;2.42;;
73113;SDS011;61301;51.956;5.876;2023-04-24T10:07:58;7.00;;;2.17;;
73113;SDS011;61301;51.956;5.876;2023-04-24T10:10:26;10.48;;;2.45;;
73113;SDS011;61301;51.956;5.876;2023-04-24T10:12:53;7.70;;;1.92;;
73113;SDS011;61301;51.956;5.876;2023-04-24T10:15:20;7.85;;;2.30;;
73113;SDS011;61301;51.956;5.876;2023-04-24T10:17:50;5.18;;;1.90;;
73113;SDS011;61301;51.956;5.876;2023-04-24T10:20:20;9.73;;;2.60;;
73113;SDS011;61301;51.956;5.876;2023-04-24T10:22:49;10.05;;;2.90;;
73113;SDS011;61301;51.956;5.876;2023-04-24T10:25:18;7.28;;;2.20;;
73113;SDS011;61301;51.956;5.876;2023-04-24T10:27:46;7.93;;;2.25;;
73113;SDS011;61301;51.956;5.876;2023-04-24T10:30:13;12.85;;;2.58;;
73113;SDS011;61301;51.956;5.876;2023-04-24T10:32:40;13.57;;;3.13;;
73113;SDS011;61301;51.956;5.876;2023-04-24T10:35:06;8.20;;;2.25;;
73113;SDS011;61301;51.956;5.876;2023-04-24T10:37:37;8.15;;;2.55;;
73113;SDS011;61301;51.956;5.876;2023-04-24T10:40:05;8.40;;;2.45;;
73113;SDS011;61301;51.956;5.876;2023-04-24T10:42:33;9.18;;;1.95;;
73113;SDS011;61301;51.956;5.876;2023-04-24T10:45:04;5.97;;;1.80;;
73113;SDS011;61301;51.956;5.876;2023-04-24T10:47:39;7.13;;;2.05;;
73113;SDS011;61301;51.956;5.876;2023-04-24T10:50:10;5.90;;;1.98;;
73113;SDS011;61301;51.956;5.876;2023-04-24T10:52:45;7.70;;;1.73;;
73113;SDS011;61301;51.956;5.876;2023-04-24T10:55:13;6.38;;;2.00;;
73113;SDS011;61301;51.956;5.876;2023-04-24T10:57:43;7.38;;;2.33;;
73113;SDS011;61301;51.956;5.876;2023-04-24T11:00:27;3.20;;;1.23;;
73113;SDS011;61301;51.956;5.876;2023-04-24T11:02:53;3.55;;;1.40;;
73113;SDS011;61301;51.956;5.876;2023-04-24T11:05:19;6.53;;;1.60;;
73113;SDS011;61301;51.956;5.876;2023-04-24T11:10:39;6.40;;;1.30;;
73113;SDS011;61301;51.956;5.876;2023-04-24T11:13:26;6.70;;;1.55;;
73113;SDS011;61301;51.956;5.876;2023-04-24T11:16:20;5.35;;;1.23;;
73113;SDS011;61301;51.956;5.876;2023-04-24T11:32:23;4.45;;;1.10;;
73113;SDS011;61301;51.956;5.876;2023-04-24T11:35:02;3.30;;;0.80;;
73113;SDS011;61301;51.956;5.876;2023-04-24T11:37:38;3.23;;;0.80;;
73113;SDS011;61301;51.956;5.876;2023-04-24T11:42:38;3.70;;;0.90;;
73113;SDS011;61301;51.956;5.876;2023-04-24T11:47:36;1.90;;;0.50;;
73113;SDS011;61301;51.956;5.876;2023-04-24T11:50:03;2.22;;;0.55;;
73113;SDS011;61301;51.956;5.876;2023-04-24T11:52:31;3.40;;;0.93;;
73113;SDS011;61301;51.956;5.876;2023-04-24T11:55:02;2.70;;;1.15;;
73113;SDS011;61301;51.956;5.876;2023-04-24T11:57:29;1.85;;;0.70;;
73113;SDS011;61301;51.956;5.876;2023-04-24T11:59:59;4.35;;;1.00;;
73113;SDS011;61301;51.956;5.876;2023-04-24T12:02:26;1.88;;;0.65;;
73113;SDS011;61301;51.956;5.876;2023-04-24T12:04:53;4.55;;;0.82;;
73113;SDS011;61301;51.956;5.876;2023-04-24T12:07:20;2.90;;;0.73;;
73113;SDS011;61301;51.956;5.876;2023-04-24T12:09:47;4.28;;;0.60;;
73113;SDS011;61301;51.956;5.876;2023-04-24T12:12:17;2.90;;;0.95;;
73113;SDS011;61301;51.956;5.876;2023-04-24T12:14:44;2.08;;;0.70;;
73113;SDS011;61301;51.956;5.876;2023-04-24T12:17:15;1.75;;;0.70;;
73113;SDS011;61301;51.956;5.876;2023-04-24T12:19:46;2.55;;;0.70;;
73113;SDS011;61301;51.956;5.876;2023-04-24T12:22:13;4.05;;;1.08;;
73113;SDS011;61301;51.956;5.876;2023-04-24T12:27:29;5.60;;;0.80;;
73113;SDS011;61301;51.956;5.876;2023-04-24T12:29:59;3.70;;;0.65;;
73113;SDS011;61301;51.956;5.876;2023-04-24T12:32:27;1.95;;;0.65;;
73113;SDS011;61301;51.956;5.876;2023-04-24T12:34:53;3.58;;;1.00;;
73113;SDS011;61301;51.956;5.876;2023-04-24T12:37:22;3.45;;;0.70;;
73113;SDS011;61301;51.956;5.876;2023-04-24T12:42:55;3.00;;;1.02;;
73113;SDS011;61301;51.956;5.876;2023-04-24T12:45:21;2.95;;;0.95;;
73113;SDS011;61301;51.956;5.876;2023-04-24T12:47:49;4.40;;;0.75;;
73113;SDS011;61301;51.956;5.876;2023-04-24T12:50:15;4.22;;;0.85;;
73113;SDS011;61301;51.956;5.876;2023-04-24T12:52:41;2.00;;;0.65;;
73113;SDS011;61301;51.956;5.876;2023-04-24T12:55:09;6.25;;;0.80;;
73113;SDS011;61301;51.956;5.876;2023-04-24T12:57:36;2.42;;;0.60;;
73113;SDS011;61301;51.956;5.876;2023-04-24T13:00:03;2.28;;;0.50;;
73113;SDS011;61301;51.956;5.876;2023-04-24T13:02:31;2.22;;;0.80;;
73113;SDS011;61301;51.956;5.876;2023-04-24T13:04:57;2.22;;;0.63;;
73113;SDS011;61301;51.956;5.876;2023-04-24T13:07:24;2.08;;;0.70;;
73113;SDS011;61301;51.956;5.876;2023-04-24T13:09:50;2.65;;;0.90;;
73113;SDS011;61301;51.956;5.876;2023-04-24T13:12:17;5.18;;;0.80;;
73113;SDS011;61301;51.956;5.876;2023-04-24T13:14:43;5.68;;;0.73;;
73113;SDS011;61301;51.956;5.876;2023-04-24T13:17:09;3.90;;;1.02;;
73113;SDS011;61301;51.956;5.876;2023-04-24T13:19:37;5.32;;;1.20;;
73113;SDS011;61301;51.956;5.876;2023-04-24T13:22:10;7.00;;;1.05;;
73113;SDS011;61301;51.956;5.876;2023-04-24T13:24:37;6.20;;;1.02;;
73113;SDS011;61301;51.956;5.876;2023-04-24T13:27:06;5.15;;;1.70;;
73113;SDS011;61301;51.956;5.876;2023-04-24T13:29:32;7.13;;;1.10;;
73113;SDS011;61301;51.956;5.876;2023-04-24T13:31:58;3.80;;;1.17;;
73113;SDS011;61301;51.956;5.876;2023-04-24T13:34:25;4.07;;;1.30;;
73113;SDS011;61301;51.956;5.876;2023-04-24T13:36:52;5.38;;;1.30;;
73113;SDS011;61301;51.956;5.876;2023-04-24T13:39:20;7.65;;;1.80;;
73113;SDS011;61301;51.956;5.876;2023-04-24T13:41:46;6.05;;;1.30;;
73113;SDS011;61301;51.956;5.876;2023-04-24T13:44:14;6.70;;;1.85;;
73113;SDS011;61301;51.956;5.876;2023-04-24T13:46:41;3.25;;;0.95;;
73113;SDS011;61301;51.956;5.876;2023-04-24T13:49:10;4.18;;;1.25;;
73113;SDS011;61301;51.956;5.876;2023-04-24T13:51:40;4.28;;;1.35;;
73113;SDS011;61301;51.956;5.876;2023-04-24T13:54:06;10.02;;;2.45;;
73113;SDS011;61301;51.956;5.876;2023-04-24T13:56:32;5.90;;;1.70;;
73113;SDS011;61301;51.956;5.876;2023-04-24T13:58:58;8.23;;;1.85;;
73113;SDS011;61301;51.956;5.876;2023-04-24T14:01:24;5.63;;;1.63;;
73113;SDS011;61301;51.956;5.876;2023-04-24T14:03:54;6.55;;;1.67;;
73113;SDS011;61301;51.956;5.876;2023-04-24T14:06:21;4.45;;;1.30;;
73113;SDS011;61301;51.956;5.876;2023-04-24T14:08:48;5.90;;;1.30;;
73113;SDS011;61301;51.956;5.876;2023-04-24T14:11:14;3.67;;;1.08;;
73113;SDS011;61301;51.956;5.876;2023-04-24T14:13:41;6.13;;;1.83;;
73113;SDS011;61301;51.956;5.876;2023-04-24T14:16:07;6.97;;;1.58;;
73113;SDS011;61301;51.956;5.876;2023-04-24T14:18:33;6.88;;;1.92;;
73113;SDS011;61301;51.956;5.876;2023-04-24T14:20:59;4.85;;;1.70;;
73113;SDS011;61301;51.956;5.876;2023-04-24T14:23:27;9.70;;;1.67;;
73113;SDS011;61301;51.956;5.876;2023-04-24T14:25:53;9.35;;;2.10;;
73113;SDS011;61301;51.956;5.876;2023-04-24T14:28:19;4.72;;;1.83;;
73113;SDS011;61301;51.956;5.876;2023-04-24T14:30:46;6.47;;;2.30;;
73113;SDS011;61301;51.956;5.876;2023-04-24T14:33:12;7.13;;;1.92;;
73113;SDS011;61301;51.956;5.876;2023-04-24T14:35:40;4.97;;;2.00;;
73113;SDS011;61301;51.956;5.876;2023-04-24T14:38:07;5.30;;;2.03;;
73113;SDS011;61301;51.956;5.876;2023-04-24T14:40:34;5.38;;;2.15;;
73113;SDS011;61301;51.956;5.876;2023-04-24T14:43:00;3.03;;;1.17;;
73113;SDS011;61301;51.956;5.876;2023-04-24T14:45:27;5.63;;;2.20;;
73113;SDS011;61301;51.956;5.876;2023-04-24T14:47:53;7.28;;;1.45;;
73113;SDS011;61301;51.956;5.876;2023-04-24T14:50:19;6.25;;;1.65;;
73113;SDS011;61301;51.956;5.876;2023-04-24T14:52:46;6.78;;;2.35;;
73113;SDS011;61301;51.956;5.876;2023-04-24T14:55:12;6.75;;;1.95;;
73113;SDS011;61301;51.956;5.876;2023-04-24T14:57:38;4.85;;;1.52;;
73113;SDS011;61301;51.956;5.876;2023-04-24T15:00:05;6.20;;;1.88;;
73113;SDS011;61301;51.956;5.876;2023-04-24T15:02:34;5.75;;;1.48;;
73113;SDS011;61301;51.956;5.876;2023-04-24T15:05:02;8.80;;;2.20;;
73113;SDS011;61301;51.956;5.876;2023-04-24T15:07:29;4.07;;;1.48;;
73113;SDS011;61301;51.956;5.876;2023-04-24T15:09:56;7.97;;;2.10;;
73113;SDS011;61301;51.956;5.876;2023-04-24T15:12:22;5.38;;;2.03;;
73113;SDS011;61301;51.956;5.876;2023-04-24T15:14:48;14.43;;;2.42;;